sensor_id;sensor_type;location;lat;lon;timestamp;P1;durP1;ratioP1;P2;durP2;ratioP2
30635;SDS011;17400;52.392;9.750;2022-07-24T00:00:24;3.13;;;1.67;;
30635;SDS011;17400;52.392;9.750;2022-07-24T00:02:53;4.47;;;2.17;;
30635;SDS011;17400;52.392;9.750;2022-07-24T00:05:21;3.58;;;2.45;;
30635;SDS011;17400;52.392;9.750;2022-07-24T00:07:49;3.15;;;2.10;;
30635;SDS011;17400;52.392;9.750;2022-07-24T00:10:16;2.17;;;1.90;;
30635;SDS011;17400;52.392;9.750;2022-07-24T00:12:44;2.05;;;1.55;;
30635;SDS011;17400;52.392;9.750;2022-07-24T00:15:12;3.35;;;1.90;;
30635;SDS011;17400;52.392;9.750;2022-07-24T00:17:40;4.20;;;2.03;;
30635;SDS011;17400;52.392;9.750;2022-07-24T00:20:09;2.70;;;1.98;;
30635;SDS011;17400;52.392;9.750;2022-07-24T00:22:37;2.45;;;1.80;;
30635;SDS011;17400;52.392;9.750;2022-07-24T00:25:05;3.63;;;2.30;;
30635;SDS011;17400;52.392;9.750;2022-07-24T00:27:33;3.00;;;2.10;;
30635;SDS011;17400;52.392;9.750;2022-07-24T00:30:01;2.75;;;1.83;;
30635;SDS011;17400;52.392;9.750;2022-07-24T00:32:29;2.67;;;1.90;;
30635;SDS011;17400;52.392;9.750;2022-07-24T00:34:57;2.90;;;1.77;;
30635;SDS011;17400;52.392;9.750;2022-07-24T00:37:25;3.70;;;1.90;;
30635;SDS011;17400;52.392;9.750;2022-07-24T00:39:53;2.35;;;1.60;;
30635;SDS011;17400;52.392;9.750;2022-07-24T00:42:21;2.20;;;1.45;;
30635;SDS011;17400;52.392;9.750;2022-07-24T00:44:49;5.40;;;2.47;;
30635;SDS011;17400;52.392;9.750;2022-07-24T00:47:16;3.45;;;1.95;;
30635;SDS011;17400;52.392;9.750;2022-07-24T00:49:44;3.67;;;1.80;;
30635;SDS011;17400;52.392;9.750;2022-07-24T00:52:12;3.40;;;1.73;;
30635;SDS011;17400;52.392;9.750;2022-07-24T00:54:41;3.38;;;1.98;;
30635;SDS011;17400;52.392;9.750;2022-07-24T00:57:09;3.15;;;2.25;;
30635;SDS011;17400;52.392;9.750;2022-07-24T00:59:37;3.25;;;2.08;;
30635;SDS011;17400;52.392;9.750;2022-07-24T05:03:03;2.78;;;1.77;;
30635;SDS011;17400;52.392;9.750;2022-07-24T05:05:30;3.20;;;1.52;;
30635;SDS011;17400;52.392;9.750;2022-07-24T05:07:58;1.92;;;1.33;;
30635;SDS011;17400;52.392;9.750;2022-07-24T05:10:26;2.17;;;1.63;;
30635;SDS011;17400;52.392;9.750;2022-07-24T05:12:53;2.58;;;1.60;;
30635;SDS011;17400;52.392;9.750;2022-07-24T05:15:28;4.72;;;1.58;;
30635;SDS011;17400;52.392;9.750;2022-07-24T05:17:56;1.80;;;1.20;;
30635;SDS011;17400;52.392;9.750;2022-07-24T05:20:25;1.85;;;1.45;;
30635;SDS011;17400;52.392;9.750;2022-07-24T05:22:52;1.80;;;1.40;;
30635;SDS011;17400;52.392;9.750;2022-07-24T05:25:20;2.33;;;1.33;;
30635;SDS011;17400;52.392;9.750;2022-07-24T05:27:48;2.35;;;1.65;;
30635;SDS011;17400;52.392;9.750;2022-07-24T05:30:15;2.72;;;1.40;;
30635;SDS011;17400;52.392;9.750;2022-07-24T05:32:43;1.42;;;1.17;;
30635;SDS011;17400;52.392;9.750;2022-07-24T05:35:11;2.15;;;1.30;;
30635;SDS011;17400;52.392;9.750;2022-07-24T05:37:40;2.70;;;1.98;;
30635;SDS011;17400;52.392;9.750;2022-07-24T05:40:08;2.20;;;1.25;;
30635;SDS011;17400;52.392;9.750;2022-07-24T05:42:36;2.60;;;1.48;;
30635;SDS011;17400;52.392;9.750;2022-07-24T05:45:04;1.35;;;1.00;;
30635;SDS011;17400;52.392;9.750;2022-07-24T05:47:34;2.72;;;1.42;;
30635;SDS011;17400;52.392;9.750;2022-07-24T05:50:05;2.20;;;1.38;;
30635;SDS011;17400;52.392;9.750;2022-07-24T05:52:34;2.15;;;1.30;;
30635;SDS011;17400;52.392;9.750;2022-07-24T05:55:04;1.60;;;1.10;;
30635;SDS011;17400;52.392;9.750;2022-07-24T05:57:42;2.47;;;1.75;;
30635;SDS011;17400;52.392;9.750;2022-07-24T06:00:10;2.20;;;1.30;;
30635;SDS011;17400;52.392;9.750;2022-07-24T06:02:43;1.85;;;1.20;;
30635;SDS011;17400;52.392;9.750;2022-07-24T06:05:11;1.63;;;1.27;;
30635;SDS011;17400;52.392;9.750;2022-07-24T06:07:39;3.10;;;1.50;;
30635;SDS011;17400;52.392;9.750;2022-07-24T06:10:09;2.83;;;1.30;;
30635;SDS011;17400;52.392;9.750;2022-07-24T06:12:40;2.83;;;1.48;;
30635;SDS011;17400;52.392;9.750;2022-07-24T06:15:09;2.38;;;1.52;;
30635;SDS011;17400;52.392;9.750;2022-07-24T06:17:37;2.50;;;1.40;;
30635;SDS011;17400;52.392;9.750;2022-07-24T06:20:06;2.17;;;1.67;;
30635;SDS011;17400;52.392;9.750;2022-07-24T06:22:35;1.80;;;0.98;;
30635;SDS011;17400;52.392;9.750;2022-07-24T06:25:03;2.10;;;1.27;;
30635;SDS011;17400;52.392;9.750;2022-07-24T06:27:32;3.10;;;1.73;;
30635;SDS011;17400;52.392;9.750;2022-07-24T06:30:00;1.85;;;1.27;;
30635;SDS011;17400;52.392;9.750;2022-07-24T06:32:29;6.38;;;1.25;;
30635;SDS011;17400;52.392;9.750;2022-07-24T06:34:56;1.88;;;1.20;;
30635;SDS011;17400;52.392;9.750;2022-07-24T06:37:26;1.67;;;1.15;;
30635;SDS011;17400;52.392;9.750;2022-07-24T06:39:55;1.52;;;1.17;;
30635;SDS011;17400;52.392;9.750;2022-07-24T06:42:23;1.88;;;1.05;;
30635;SDS011;17400;52.392;9.750;2022-07-24T06:44:52;1.90;;;1.58;;
30635;SDS011;17400;52.392;9.750;2022-07-24T06:47:19;1.85;;;1.02;;
30635;SDS011;17400;52.392;9.750;2022-07-24T06:49:47;2.05;;;1.27;;
30635;SDS011;17400;52.392;9.750;2022-07-24T06:52:20;2.13;;;1.25;;
30635;SDS011;17400;52.392;9.750;2022-07-24T06:54:49;2.35;;;1.55;;
30635;SDS011;17400;52.392;9.750;2022-07-24T06:57:17;3.00;;;1.92;;
30635;SDS011;17400;52.392;9.750;2022-07-24T06:59:45;2.80;;;1.35;;
30635;SDS011;17400;52.392;9.750;2022-07-24T07:02:14;1.63;;;1.20;;
30635;SDS011;17400;52.392;9.750;2022-07-24T07:04:42;2.38;;;1.40;;
30635;SDS011;17400;52.392;9.750;2022-07-24T07:07:09;1.92;;;1.17;;
30635;SDS011;17400;52.392;9.750;2022-07-24T07:09:37;2.97;;;1.60;;
30635;SDS011;17400;52.392;9.750;2022-07-24T07:12:05;3.15;;;1.92;;
30635;SDS011;17400;52.392;9.750;2022-07-24T07:14:33;2.42;;;1.50;;
30635;SDS011;17400;52.392;9.750;2022-07-24T07:17:00;1.98;;;1.25;;
30635;SDS011;17400;52.392;9.750;2022-07-24T07:19:29;1.58;;;1.33;;
30635;SDS011;17400;52.392;9.750;2022-07-24T07:21:57;2.38;;;1.25;;
30635;SDS011;17400;52.392;9.750;2022-07-24T07:24:25;1.52;;;1.20;;
30635;SDS011;17400;52.392;9.750;2022-07-24T07:26:53;2.75;;;1.50;;
30635;SDS011;17400;52.392;9.750;2022-07-24T07:29:20;3.20;;;1.30;;
30635;SDS011;17400;52.392;9.750;2022-07-24T07:31:55;1.77;;;1.27;;
30635;SDS011;17400;52.392;9.750;2022-07-24T07:34:23;2.10;;;1.50;;
30635;SDS011;17400;52.392;9.750;2022-07-24T07:36:52;3.03;;;1.10;;
30635;SDS011;17400;52.392;9.750;2022-07-24T07:39:20;1.52;;;1.25;;
30635;SDS011;17400;52.392;9.750;2022-07-24T07:41:48;4.55;;;1.80;;
30635;SDS011;17400;52.392;9.750;2022-07-24T07:44:15;1.55;;;1.33;;
30635;SDS011;17400;52.392;9.750;2022-07-24T07:46:44;2.40;;;1.38;;
30635;SDS011;17400;52.392;9.750;2022-07-24T07:49:11;2.55;;;1.50;;
30635;SDS011;17400;52.392;9.750;2022-07-24T07:51:41;3.15;;;1.85;;
30635;SDS011;17400;52.392;9.750;2022-07-24T07:54:13;2.13;;;1.65;;
30635;SDS011;17400;52.392;9.750;2022-07-24T07:56:41;2.83;;;1.73;;
30635;SDS011;17400;52.392;9.750;2022-07-24T07:59:09;4.10;;;1.35;;
30635;SDS011;17400;52.392;9.750;2022-07-24T08:01:36;2.22;;;1.48;;
30635;SDS011;17400;52.392;9.750;2022-07-24T08:04:04;2.67;;;1.50;;
30635;SDS011;17400;52.392;9.750;2022-07-24T08:06:32;1.73;;;1.63;;
30635;SDS011;17400;52.392;9.750;2022-07-24T08:09:00;3.13;;;1.60;;
30635;SDS011;17400;52.392;9.750;2022-07-24T08:11:29;2.35;;;1.50;;
30635;SDS011;17400;52.392;9.750;2022-07-24T08:13:57;2.58;;;1.25;;
30635;SDS011;17400;52.392;9.750;2022-07-24T08:16:25;1.42;;;1.33;;
30635;SDS011;17400;52.392;9.750;2022-07-24T08:18:53;1.98;;;1.63;;
30635;SDS011;17400;52.392;9.750;2022-07-24T08:21:20;2.13;;;1.42;;
30635;SDS011;17400;52.392;9.750;2022-07-24T08:23:48;2.25;;;1.77;;
30635;SDS011;17400;52.392;9.750;2022-07-24T08:26:16;2.22;;;1.70;;
30635;SDS011;17400;52.392;9.750;2022-07-24T08:28:45;3.22;;;1.98;;
30635;SDS011;17400;52.392;9.750;2022-07-24T08:31:12;2.75;;;2.00;;
30635;SDS011;17400;52.392;9.750;2022-07-24T08:33:40;5.07;;;2.30;;
30635;SDS011;17400;52.392;9.750;2022-07-24T08:36:08;2.22;;;1.48;;
30635;SDS011;17400;52.392;9.750;2022-07-24T08:38:36;2.47;;;1.63;;
30635;SDS011;17400;52.392;9.750;2022-07-24T08:41:04;2.17;;;1.60;;
30635;SDS011;17400;52.392;9.750;2022-07-24T08:43:33;2.65;;;1.50;;
30635;SDS011;17400;52.392;9.750;2022-07-24T08:46:02;3.20;;;2.15;;
30635;SDS011;17400;52.392;9.750;2022-07-24T08:48:30;2.35;;;1.63;;
30635;SDS011;17400;52.392;9.750;2022-07-24T08:50:59;3.78;;;1.98;;
30635;SDS011;17400;52.392;9.750;2022-07-24T08:53:28;5.57;;;2.13;;
30635;SDS011;17400;52.392;9.750;2022-07-24T08:55:57;5.43;;;1.95;;
30635;SDS011;17400;52.392;9.750;2022-07-24T08:58:25;3.78;;;2.53;;
30635;SDS011;17400;52.392;9.750;2022-07-24T09:00:53;4.28;;;2.35;;
30635;SDS011;17400;52.392;9.750;2022-07-24T09:03:22;3.15;;;1.98;;
30635;SDS011;17400;52.392;9.750;2022-07-24T09:05:53;5.18;;;2.25;;
30635;SDS011;17400;52.392;9.750;2022-07-24T09:08:21;4.25;;;2.10;;
30635;SDS011;17400;52.392;9.750;2022-07-24T09:10:53;2.70;;;1.65;;
30635;SDS011;17400;52.392;9.750;2022-07-24T09:13:24;3.03;;;1.52;;
30635;SDS011;17400;52.392;9.750;2022-07-24T09:15:52;2.63;;;1.95;;
30635;SDS011;17400;52.392;9.750;2022-07-24T09:18:29;2.78;;;2.25;;
30635;SDS011;17400;52.392;9.750;2022-07-24T09:20:58;3.13;;;1.85;;
30635;SDS011;17400;52.392;9.750;2022-07-24T09:23:38;5.05;;;2.40;;
30635;SDS011;17400;52.392;9.750;2022-07-24T09:26:06;5.38;;;2.70;;
30635;SDS011;17400;52.392;9.750;2022-07-24T09:28:45;3.05;;;2.42;;
30635;SDS011;17400;52.392;9.750;2022-07-24T09:31:14;3.10;;;2.25;;
30635;SDS011;17400;52.392;9.750;2022-07-24T09:33:44;5.25;;;2.80;;
30635;SDS011;17400;52.392;9.750;2022-07-24T09:36:12;4.45;;;2.92;;
30635;SDS011;17400;52.392;9.750;2022-07-24T09:38:44;3.25;;;2.53;;
30635;SDS011;17400;52.392;9.750;2022-07-24T09:41:19;4.28;;;2.50;;
30635;SDS011;17400;52.392;9.750;2022-07-24T09:43:58;3.78;;;2.13;;
30635;SDS011;17400;52.392;9.750;2022-07-24T09:46:27;5.35;;;2.72;;
30635;SDS011;17400;52.392;9.750;2022-07-24T09:48:57;4.30;;;2.60;;
30635;SDS011;17400;52.392;9.750;2022-07-24T09:51:27;4.00;;;2.92;;
30635;SDS011;17400;52.392;9.750;2022-07-24T09:53:57;5.18;;;3.72;;
30635;SDS011;17400;52.392;9.750;2022-07-24T09:56:27;6.85;;;3.15;;
30635;SDS011;17400;52.392;9.750;2022-07-24T09:58:55;5.00;;;4.20;;
30635;SDS011;17400;52.392;9.750;2022-07-24T10:01:26;4.47;;;3.08;;
30635;SDS011;17400;52.392;9.750;2022-07-24T10:03:56;3.20;;;2.70;;
30635;SDS011;17400;52.392;9.750;2022-07-24T10:06:26;5.68;;;3.30;;
30635;SDS011;17400;52.392;9.750;2022-07-24T10:08:55;3.58;;;2.63;;
30635;SDS011;17400;52.392;9.750;2022-07-24T10:11:24;5.32;;;3.85;;
30635;SDS011;17400;52.392;9.750;2022-07-24T10:13:52;5.55;;;3.42;;
30635;SDS011;17400;52.392;9.750;2022-07-24T10:16:27;4.68;;;3.80;;
30635;SDS011;17400;52.392;9.750;2022-07-24T10:18:58;5.50;;;3.85;;
30635;SDS011;17400;52.392;9.750;2022-07-24T10:21:29;7.20;;;4.07;;
30635;SDS011;17400;52.392;9.750;2022-07-24T10:27:20;5.05;;;3.17;;
30635;SDS011;17400;52.392;9.750;2022-07-24T10:29:54;5.78;;;3.80;;
30635;SDS011;17400;52.392;9.750;2022-07-24T10:32:23;3.83;;;2.75;;
30635;SDS011;17400;52.392;9.750;2022-07-24T10:34:58;6.15;;;3.63;;
30635;SDS011;17400;52.392;9.750;2022-07-24T10:37:36;4.93;;;3.25;;
30635;SDS011;17400;52.392;9.750;2022-07-24T10:40:11;5.22;;;3.92;;
30635;SDS011;17400;52.392;9.750;2022-07-24T10:45:43;6.90;;;4.10;;
30635;SDS011;17400;52.392;9.750;2022-07-24T10:48:25;6.38;;;3.85;;
30635;SDS011;17400;52.392;9.750;2022-07-24T10:51:06;5.00;;;3.97;;
30635;SDS011;17400;52.392;9.750;2022-07-24T10:53:51;5.22;;;3.97;;
30635;SDS011;17400;52.392;9.750;2022-07-24T10:56:21;7.20;;;3.78;;
30635;SDS011;17400;52.392;9.750;2022-07-24T10:58:55;4.97;;;4.07;;
30635;SDS011;17400;52.392;9.750;2022-07-24T11:01:35;6.18;;;4.07;;
30635;SDS011;17400;52.392;9.750;2022-07-24T11:06:53;4.53;;;3.70;;
30635;SDS011;17400;52.392;9.750;2022-07-24T11:09:22;5.65;;;4.00;;
30635;SDS011;17400;52.392;9.750;2022-07-24T11:12:04;6.57;;;4.70;;
30635;SDS011;17400;52.392;9.750;2022-07-24T11:14:48;5.63;;;3.42;;
30635;SDS011;17400;52.392;9.750;2022-07-24T11:17:36;5.18;;;4.00;;
30635;SDS011;17400;52.392;9.750;2022-07-24T11:20:06;6.05;;;4.00;;
30635;SDS011;17400;52.392;9.750;2022-07-24T11:22:38;6.28;;;4.43;;
30635;SDS011;17400;52.392;9.750;2022-07-24T11:25:08;6.55;;;4.78;;
30635;SDS011;17400;52.392;9.750;2022-07-24T11:27:48;4.53;;;3.50;;
30635;SDS011;17400;52.392;9.750;2022-07-24T11:30:23;6.35;;;5.03;;
30635;SDS011;17400;52.392;9.750;2022-07-24T11:32:52;6.88;;;4.72;;
30635;SDS011;17400;52.392;9.750;2022-07-24T11:35:27;8.27;;;5.57;;
30635;SDS011;17400;52.392;9.750;2022-07-24T11:37:57;6.25;;;4.13;;
30635;SDS011;17400;52.392;9.750;2022-07-24T11:40:26;4.53;;;3.63;;
30635;SDS011;17400;52.392;9.750;2022-07-24T11:42:54;3.83;;;3.35;;
30635;SDS011;17400;52.392;9.750;2022-07-24T11:45:26;20.33;;;6.47;;
30635;SDS011;17400;52.392;9.750;2022-07-24T11:47:54;4.63;;;3.97;;
30635;SDS011;17400;52.392;9.750;2022-07-24T11:50:23;6.55;;;4.05;;
30635;SDS011;17400;52.392;9.750;2022-07-24T11:52:52;6.75;;;4.95;;
30635;SDS011;17400;52.392;9.750;2022-07-24T11:55:22;5.57;;;4.70;;
30635;SDS011;17400;52.392;9.750;2022-07-24T11:57:53;4.25;;;3.30;;
30635;SDS011;17400;52.392;9.750;2022-07-24T12:00:43;7.88;;;5.05;;
30635;SDS011;17400;52.392;9.750;2022-07-24T12:03:10;6.35;;;3.95;;
30635;SDS011;17400;52.392;9.750;2022-07-24T12:05:38;6.05;;;4.20;;
30635;SDS011;17400;52.392;9.750;2022-07-24T12:08:15;8.15;;;4.45;;
30635;SDS011;17400;52.392;9.750;2022-07-24T12:10:45;6.50;;;4.53;;
30635;SDS011;17400;52.392;9.750;2022-07-24T12:13:15;5.18;;;3.67;;
30635;SDS011;17400;52.392;9.750;2022-07-24T12:15:43;5.80;;;3.80;;
30635;SDS011;17400;52.392;9.750;2022-07-24T12:18:11;8.18;;;4.53;;
30635;SDS011;17400;52.392;9.750;2022-07-24T12:20:40;8.65;;;4.40;;
30635;SDS011;17400;52.392;9.750;2022-07-24T12:23:10;6.13;;;4.53;;
30635;SDS011;17400;52.392;9.750;2022-07-24T12:25:39;5.82;;;4.47;;
30635;SDS011;17400;52.392;9.750;2022-07-24T12:28:09;5.63;;;4.00;;
30635;SDS011;17400;52.392;9.750;2022-07-24T12:30:39;7.03;;;4.78;;
30635;SDS011;17400;52.392;9.750;2022-07-24T12:33:08;5.75;;;3.88;;
30635;SDS011;17400;52.392;9.750;2022-07-24T12:35:52;7.18;;;3.83;;
30635;SDS011;17400;52.392;9.750;2022-07-24T12:38:22;4.97;;;4.05;;
30635;SDS011;17400;52.392;9.750;2022-07-24T12:40:51;4.93;;;3.83;;
30635;SDS011;17400;52.392;9.750;2022-07-24T12:43:29;6.43;;;3.40;;
30635;SDS011;17400;52.392;9.750;2022-07-24T12:46:06;5.25;;;4.65;;
30635;SDS011;17400;52.392;9.750;2022-07-24T12:48:35;6.28;;;4.22;;
30635;SDS011;17400;52.392;9.750;2022-07-24T12:51:04;5.72;;;4.13;;
30635;SDS011;17400;52.392;9.750;2022-07-24T12:53:37;7.93;;;4.00;;
30635;SDS011;17400;52.392;9.750;2022-07-24T12:56:07;5.47;;;4.20;;
30635;SDS011;17400;52.392;9.750;2022-07-24T12:58:55;4.65;;;3.95;;
30635;SDS011;17400;52.392;9.750;2022-07-24T13:01:44;5.20;;;4.05;;
30635;SDS011;17400;52.392;9.750;2022-07-24T13:04:15;4.78;;;4.13;;
30635;SDS011;17400;52.392;9.750;2022-07-24T13:06:45;4.53;;;3.35;;
30635;SDS011;17400;52.392;9.750;2022-07-24T13:09:15;4.90;;;4.45;;
30635;SDS011;17400;52.392;9.750;2022-07-24T13:11:45;5.88;;;4.10;;
30635;SDS011;17400;52.392;9.750;2022-07-24T13:14:16;4.95;;;3.67;;
30635;SDS011;17400;52.392;9.750;2022-07-24T13:16:46;5.15;;;3.95;;
30635;SDS011;17400;52.392;9.750;2022-07-24T13:19:15;4.90;;;4.07;;
30635;SDS011;17400;52.392;9.750;2022-07-24T13:21:44;4.75;;;3.90;;
30635;SDS011;17400;52.392;9.750;2022-07-24T13:24:13;9.40;;;4.40;;
30635;SDS011;17400;52.392;9.750;2022-07-24T13:26:43;4.47;;;3.90;;
30635;SDS011;17400;52.392;9.750;2022-07-24T13:29:12;5.03;;;4.25;;
30635;SDS011;17400;52.392;9.750;2022-07-24T13:31:42;4.18;;;3.50;;
30635;SDS011;17400;52.392;9.750;2022-07-24T13:34:10;6.78;;;4.35;;
30635;SDS011;17400;52.392;9.750;2022-07-24T13:36:40;6.22;;;4.65;;
30635;SDS011;17400;52.392;9.750;2022-07-24T13:39:12;4.78;;;3.97;;
30635;SDS011;17400;52.392;9.750;2022-07-24T13:41:40;5.60;;;4.43;;
30635;SDS011;17400;52.392;9.750;2022-07-24T13:44:08;5.45;;;4.53;;
30635;SDS011;17400;52.392;9.750;2022-07-24T13:46:36;5.53;;;4.22;;
30635;SDS011;17400;52.392;9.750;2022-07-24T13:49:05;5.85;;;4.10;;
30635;SDS011;17400;52.392;9.750;2022-07-24T13:51:33;7.30;;;4.45;;
30635;SDS011;17400;52.392;9.750;2022-07-24T13:54:01;5.18;;;4.15;;
30635;SDS011;17400;52.392;9.750;2022-07-24T13:56:30;5.00;;;4.00;;
30635;SDS011;17400;52.392;9.750;2022-07-24T13:58:59;5.68;;;4.28;;
30635;SDS011;17400;52.392;9.750;2022-07-24T14:01:28;6.68;;;4.72;;
30635;SDS011;17400;52.392;9.750;2022-07-24T14:04:00;5.38;;;4.03;;
30635;SDS011;17400;52.392;9.750;2022-07-24T14:06:50;4.85;;;3.95;;
30635;SDS011;17400;52.392;9.750;2022-07-24T14:09:18;5.65;;;3.28;;
30635;SDS011;17400;52.392;9.750;2022-07-24T14:11:46;8.18;;;5.00;;
30635;SDS011;17400;52.392;9.750;2022-07-24T14:14:14;8.27;;;5.35;;
30635;SDS011;17400;52.392;9.750;2022-07-24T14:16:41;4.80;;;4.30;;
30635;SDS011;17400;52.392;9.750;2022-07-24T14:19:09;6.57;;;4.55;;
30635;SDS011;17400;52.392;9.750;2022-07-24T14:21:37;5.55;;;4.05;;
30635;SDS011;17400;52.392;9.750;2022-07-24T14:24:07;6.15;;;4.18;;
30635;SDS011;17400;52.392;9.750;2022-07-24T14:26:41;5.22;;;3.97;;
30635;SDS011;17400;52.392;9.750;2022-07-24T14:29:09;6.50;;;4.68;;
30635;SDS011;17400;52.392;9.750;2022-07-24T14:31:37;5.50;;;3.83;;
30635;SDS011;17400;52.392;9.750;2022-07-24T14:34:05;6.50;;;4.45;;
30635;SDS011;17400;52.392;9.750;2022-07-24T14:36:34;5.63;;;4.53;;
30635;SDS011;17400;52.392;9.750;2022-07-24T14:39:02;5.75;;;4.30;;
30635;SDS011;17400;52.392;9.750;2022-07-24T14:41:31;5.43;;;4.32;;
30635;SDS011;17400;52.392;9.750;2022-07-24T14:43:59;5.72;;;4.07;;
30635;SDS011;17400;52.392;9.750;2022-07-24T14:46:34;6.80;;;3.72;;
30635;SDS011;17400;52.392;9.750;2022-07-24T14:49:01;4.90;;;3.72;;
30635;SDS011;17400;52.392;9.750;2022-07-24T14:51:29;5.03;;;4.07;;
30635;SDS011;17400;52.392;9.750;2022-07-24T14:53:57;5.93;;;4.82;;
30635;SDS011;17400;52.392;9.750;2022-07-24T14:56:24;4.50;;;3.33;;
30635;SDS011;17400;52.392;9.750;2022-07-24T14:58:54;4.90;;;4.07;;
30635;SDS011;17400;52.392;9.750;2022-07-24T15:01:22;5.43;;;4.05;;
30635;SDS011;17400;52.392;9.750;2022-07-24T15:03:49;6.43;;;4.13;;
30635;SDS011;17400;52.392;9.750;2022-07-24T15:06:17;5.07;;;3.85;;
30635;SDS011;17400;52.392;9.750;2022-07-24T15:08:45;5.40;;;4.80;;
30635;SDS011;17400;52.392;9.750;2022-07-24T15:11:13;5.18;;;4.20;;
30635;SDS011;17400;52.392;9.750;2022-07-24T15:13:41;4.90;;;3.97;;
30635;SDS011;17400;52.392;9.750;2022-07-24T15:16:10;5.38;;;4.30;;
30635;SDS011;17400;52.392;9.750;2022-07-24T15:18:37;5.35;;;4.70;;
30635;SDS011;17400;52.392;9.750;2022-07-24T15:21:05;11.00;;;5.05;;
30635;SDS011;17400;52.392;9.750;2022-07-24T15:23:33;6.15;;;4.18;;
30635;SDS011;17400;52.392;9.750;2022-07-24T15:26:01;5.50;;;4.00;;
30635;SDS011;17400;52.392;9.750;2022-07-24T15:28:29;6.30;;;4.07;;
30635;SDS011;17400;52.392;9.750;2022-07-24T15:30:56;4.15;;;3.60;;
30635;SDS011;17400;52.392;9.750;2022-07-24T15:33:26;6.38;;;4.38;;
30635;SDS011;17400;52.392;9.750;2022-07-24T15:35:54;5.38;;;4.47;;
30635;SDS011;17400;52.392;9.750;2022-07-24T15:38:22;5.18;;;4.30;;
30635;SDS011;17400;52.392;9.750;2022-07-24T15:40:49;7.65;;;4.13;;
30635;SDS011;17400;52.392;9.750;2022-07-24T15:43:17;6.93;;;4.60;;
30635;SDS011;17400;52.392;9.750;2022-07-24T15:45:45;6.40;;;4.15;;
30635;SDS011;17400;52.392;9.750;2022-07-24T15:48:13;6.30;;;4.32;;
30635;SDS011;17400;52.392;9.750;2022-07-24T15:50:42;5.20;;;4.30;;
30635;SDS011;17400;52.392;9.750;2022-07-24T15:53:10;5.93;;;4.25;;
30635;SDS011;17400;52.392;9.750;2022-07-24T15:55:38;9.98;;;4.93;;
30635;SDS011;17400;52.392;9.750;2022-07-24T15:58:05;7.25;;;4.85;;
30635;SDS011;17400;52.392;9.750;2022-07-24T16:00:33;6.20;;;4.75;;
30635;SDS011;17400;52.392;9.750;2022-07-24T16:03:01;5.80;;;4.72;;
30635;SDS011;17400;52.392;9.750;2022-07-24T16:05:29;6.53;;;4.60;;
30635;SDS011;17400;52.392;9.750;2022-07-24T16:07:59;5.65;;;4.90;;
30635;SDS011;17400;52.392;9.750;2022-07-24T16:10:26;8.77;;;5.07;;
30635;SDS011;17400;52.392;9.750;2022-07-24T16:12:55;6.40;;;5.03;;
30635;SDS011;17400;52.392;9.750;2022-07-24T16:15:27;6.82;;;4.90;;
30635;SDS011;17400;52.392;9.750;2022-07-24T16:17:56;6.78;;;5.32;;
30635;SDS011;17400;52.392;9.750;2022-07-24T16:20:23;6.35;;;4.60;;
30635;SDS011;17400;52.392;9.750;2022-07-24T16:22:52;6.53;;;4.80;;
30635;SDS011;17400;52.392;9.750;2022-07-24T16:25:21;11.32;;;5.68;;
30635;SDS011;17400;52.392;9.750;2022-07-24T16:27:48;5.07;;;4.20;;
30635;SDS011;17400;52.392;9.750;2022-07-24T16:30:16;7.18;;;6.05;;
30635;SDS011;17400;52.392;9.750;2022-07-24T16:32:45;6.72;;;5.40;;
30635;SDS011;17400;52.392;9.750;2022-07-24T16:35:12;6.55;;;4.90;;
30635;SDS011;17400;52.392;9.750;2022-07-24T16:37:45;6.25;;;4.57;;
30635;SDS011;17400;52.392;9.750;2022-07-24T16:40:13;5.55;;;4.47;;
30635;SDS011;17400;52.392;9.750;2022-07-24T16:42:42;4.95;;;4.05;;
30635;SDS011;17400;52.392;9.750;2022-07-24T16:45:11;5.10;;;4.22;;
30635;SDS011;17400;52.392;9.750;2022-07-24T16:47:59;5.07;;;3.97;;
30635;SDS011;17400;52.392;9.750;2022-07-24T16:50:27;7.13;;;4.65;;
30635;SDS011;17400;52.392;9.750;2022-07-24T16:52:55;6.40;;;4.78;;
30635;SDS011;17400;52.392;9.750;2022-07-24T16:55:22;5.68;;;4.30;;
30635;SDS011;17400;52.392;9.750;2022-07-24T16:57:51;5.60;;;4.30;;
30635;SDS011;17400;52.392;9.750;2022-07-24T17:00:19;7.00;;;5.40;;
30635;SDS011;17400;52.392;9.750;2022-07-24T17:02:47;5.50;;;4.53;;
30635;SDS011;17400;52.392;9.750;2022-07-24T17:05:15;6.15;;;4.70;;
30635;SDS011;17400;52.392;9.750;2022-07-24T17:07:46;7.55;;;4.35;;
30635;SDS011;17400;52.392;9.750;2022-07-24T17:10:14;8.85;;;5.20;;
30635;SDS011;17400;52.392;9.750;2022-07-24T17:12:42;7.40;;;5.25;;
30635;SDS011;17400;52.392;9.750;2022-07-24T17:15:11;7.82;;;5.00;;
30635;SDS011;17400;52.392;9.750;2022-07-24T17:17:39;4.75;;;3.95;;
30635;SDS011;17400;52.392;9.750;2022-07-24T17:20:28;5.35;;;3.75;;
30635;SDS011;17400;52.392;9.750;2022-07-24T17:22:58;7.80;;;4.78;;
30635;SDS011;17400;52.392;9.750;2022-07-24T17:25:27;7.40;;;4.85;;
30635;SDS011;17400;52.392;9.750;2022-07-24T17:27:56;5.47;;;4.45;;
30635;SDS011;17400;52.392;9.750;2022-07-24T17:30:26;4.63;;;4.13;;
30635;SDS011;17400;52.392;9.750;2022-07-24T17:32:54;5.47;;;4.38;;
30635;SDS011;17400;52.392;9.750;2022-07-24T17:35:21;6.82;;;4.07;;
30635;SDS011;17400;52.392;9.750;2022-07-24T17:37:49;5.63;;;4.47;;
30635;SDS011;17400;52.392;9.750;2022-07-24T17:40:17;5.65;;;4.60;;
30635;SDS011;17400;52.392;9.750;2022-07-24T17:42:46;8.27;;;4.43;;
30635;SDS011;17400;52.392;9.750;2022-07-24T17:45:17;6.47;;;4.78;;
30635;SDS011;17400;52.392;9.750;2022-07-24T17:47:48;6.88;;;5.00;;
30635;SDS011;17400;52.392;9.750;2022-07-24T17:50:16;6.13;;;4.63;;
30635;SDS011;17400;52.392;9.750;2022-07-24T17:52:45;6.28;;;4.88;;
30635;SDS011;17400;52.392;9.750;2022-07-24T17:55:13;5.18;;;4.57;;
30635;SDS011;17400;52.392;9.750;2022-07-24T17:57:46;8.07;;;4.70;;
30635;SDS011;17400;52.392;9.750;2022-07-24T18:00:14;5.75;;;4.30;;
30635;SDS011;17400;52.392;9.750;2022-07-24T18:02:45;4.97;;;4.10;;
30635;SDS011;17400;52.392;9.750;2022-07-24T18:05:14;6.30;;;4.60;;
30635;SDS011;17400;52.392;9.750;2022-07-24T18:07:43;5.43;;;4.55;;
30635;SDS011;17400;52.392;9.750;2022-07-24T18:10:12;12.02;;;4.80;;
30635;SDS011;17400;52.392;9.750;2022-07-24T18:12:41;5.30;;;4.07;;
30635;SDS011;17400;52.392;9.750;2022-07-24T18:15:09;7.65;;;4.43;;
30635;SDS011;17400;52.392;9.750;2022-07-24T18:17:38;7.10;;;5.32;;
30635;SDS011;17400;52.392;9.750;2022-07-24T18:20:07;7.38;;;5.30;;
30635;SDS011;17400;52.392;9.750;2022-07-24T18:22:41;6.30;;;5.00;;
30635;SDS011;17400;52.392;9.750;2022-07-24T18:25:09;5.45;;;4.40;;
30635;SDS011;17400;52.392;9.750;2022-07-24T18:27:42;6.45;;;4.43;;
30635;SDS011;17400;52.392;9.750;2022-07-24T18:30:11;7.13;;;4.13;;
30635;SDS011;17400;52.392;9.750;2022-07-24T18:32:39;7.22;;;4.47;;
30635;SDS011;17400;52.392;9.750;2022-07-24T18:35:08;7.10;;;4.63;;
30635;SDS011;17400;52.392;9.750;2022-07-24T18:37:41;7.70;;;4.90;;
30635;SDS011;17400;52.392;9.750;2022-07-24T18:40:10;10.10;;;5.18;;
30635;SDS011;17400;52.392;9.750;2022-07-24T18:42:38;5.82;;;4.82;;
30635;SDS011;17400;52.392;9.750;2022-07-24T18:45:06;4.70;;;4.03;;
30635;SDS011;17400;52.392;9.750;2022-07-24T18:47:34;5.35;;;4.20;;
30635;SDS011;17400;52.392;9.750;2022-07-24T18:50:03;8.38;;;6.05;;
30635;SDS011;17400;52.392;9.750;2022-07-24T18:52:31;7.93;;;5.72;;
30635;SDS011;17400;52.392;9.750;2022-07-24T18:55:00;7.60;;;5.82;;
30635;SDS011;17400;52.392;9.750;2022-07-24T18:57:28;17.15;;;10.55;;
30635;SDS011;17400;52.392;9.750;2022-07-24T18:59:55;18.00;;;10.45;;
30635;SDS011;17400;52.392;9.750;2022-07-24T19:02:23;17.15;;;10.85;;
30635;SDS011;17400;52.392;9.750;2022-07-24T19:04:51;13.52;;;8.18;;
30635;SDS011;17400;52.392;9.750;2022-07-24T19:07:18;9.30;;;6.07;;
30635;SDS011;17400;52.392;9.750;2022-07-24T19:09:46;11.07;;;7.80;;
30635;SDS011;17400;52.392;9.750;2022-07-24T19:12:15;11.00;;;7.85;;